createdAt,value
2022-09-22T00:01:36.169Z,3.88
2022-09-22T00:04:07.331Z,6.78
2022-09-22T00:06:39.543Z,4.80
2022-09-22T00:09:09.903Z,4.15
2022-09-22T00:11:40.374Z,4.40
2022-09-22T00:14:11.278Z,3.38
2022-09-22T00:16:42.119Z,2.97
2022-09-22T00:19:12.658Z,2.50
2022-09-22T00:21:42.290Z,2.72
2022-09-22T00:24:11.227Z,5.38
2022-09-22T00:26:40.086Z,3.67
2022-09-22T00:29:09.840Z,7.10
2022-09-22T00:31:39.224Z,2.40
2022-09-22T00:34:08.167Z,4.55
2022-09-22T00:36:36.600Z,3.80
2022-09-22T00:39:06.299Z,6.53
2022-09-22T00:41:37.352Z,2.15
2022-09-22T00:44:40.029Z,5.18
2022-09-22T00:47:18.759Z,2.50
2022-09-22T00:49:51.874Z,5.75
2022-09-22T00:52:24.109Z,6.00
2022-09-22T00:54:57.564Z,4.47
2022-09-22T00:57:28.032Z,2.17
2022-09-22T00:59:56.748Z,3.42
2022-09-22T01:02:25.985Z,5.93
2022-09-22T01:04:55.238Z,5.60
2022-09-22T01:07:26.142Z,2.45
2022-09-22T01:09:56.340Z,4.65
2022-09-22T01:12:25.896Z,3.80
2022-09-22T01:15:21.283Z,4.43
2022-09-22T01:18:03.534Z,3.50
2022-09-22T01:21:15.367Z,3.13
2022-09-22T01:24:13.057Z,2.53
2022-09-22T01:27:16.506Z,3.70
2022-09-22T01:30:23.157Z,3.33
2022-09-22T01:33:01.959Z,4.10
2022-09-22T01:35:33.868Z,5.00
2022-09-22T01:38:11.415Z,3.47
2022-09-22T01:40:44.218Z,4.25
2022-09-22T01:43:18.550Z,4.10
2022-09-22T01:45:49.398Z,5.88
2022-09-22T01:48:23.833Z,5.00
2022-09-22T01:50:56.769Z,5.57
2022-09-22T01:53:30.829Z,4.35
2022-09-22T01:58:34.386Z,4.50
2022-09-22T02:01:14.283Z,4.53
2022-09-22T02:03:48.010Z,4.78
2022-09-22T02:06:21.693Z,3.65
2022-09-22T02:08:54.493Z,3.35
2022-09-22T02:11:23.201Z,1.85
2022-09-22T02:13:51.657Z,6.68
2022-09-22T02:16:23.191Z,2.88
2022-09-22T02:18:55.169Z,2.50
2022-09-22T02:21:25.733Z,2.40
2022-09-22T02:23:53.819Z,3.83
2022-09-22T02:26:25.701Z,4.38
2022-09-22T02:28:56.813Z,4.55
2022-09-22T02:31:28.820Z,4.95
2022-09-22T02:33:59.015Z,2.67
2022-09-22T02:36:39.929Z,4.65
2022-09-22T02:39:11.152Z,5.97
2022-09-22T02:41:53.863Z,5.03
2022-09-22T02:44:26.563Z,2.70
2022-09-22T02:46:59.418Z,3.22
2022-09-22T02:49:29.793Z,3.28
2022-09-22T02:51:59.449Z,5.30
2022-09-22T02:54:27.578Z,6.70
2022-09-22T02:56:55.951Z,4.22
2022-09-22T02:59:24.075Z,5.82
2022-09-22T03:01:52.359Z,5.15
2022-09-22T03:04:20.667Z,3.05
2022-09-22T03:06:50.182Z,4.30
2022-09-22T03:09:18.315Z,6.85
2022-09-22T03:11:46.533Z,2.72
2022-09-22T03:14:14.722Z,5.10
2022-09-22T03:16:42.838Z,2.42
2022-09-22T03:19:11.172Z,2.63
2022-09-22T03:21:39.573Z,3.38
2022-09-22T03:24:09.459Z,3.45
2022-09-22T03:26:37.553Z,4.88
2022-09-22T03:29:06.094Z,3.33
2022-09-22T03:31:34.249Z,2.28
2022-09-22T03:34:02.622Z,1.90
2022-09-22T03:36:30.884Z,3.42
2022-09-22T03:39:00.262Z,3.60
2022-09-22T03:41:29.951Z,5.20
2022-09-22T03:43:58.609Z,2.45
2022-09-22T03:46:26.967Z,2.88
2022-09-22T03:48:55.274Z,2.78
2022-09-22T03:51:23.300Z,8.75
2022-09-22T03:53:51.351Z,4.18
2022-09-22T03:56:19.488Z,3.95
2022-09-22T03:58:49.987Z,7.63
2022-09-22T04:01:18.194Z,4.72
2022-09-22T04:03:46.699Z,3.67
2022-09-22T04:06:14.724Z,4.60
2022-09-22T04:08:42.883Z,5.85
2022-09-22T04:11:10.925Z,3.67
2022-09-22T04:13:44.015Z,6.22
2022-09-22T04:16:17.264Z,4.50
2022-09-22T04:18:45.315Z,4.07
2022-09-22T04:21:13.803Z,3.95
2022-09-22T04:23:42.135Z,4.53
2022-09-22T04:26:10.372Z,3.55
2022-09-22T04:28:38.546Z,5.35
2022-09-22T04:31:07.110Z,5.72
2022-09-22T04:33:36.845Z,7.75
2022-09-22T04:36:05.106Z,4.90
2022-09-22T04:38:33.541Z,5.68
2022-09-22T04:41:02.281Z,5.03
2022-09-22T04:43:30.318Z,7.18
2022-09-22T04:45:58.476Z,4.70
2022-09-22T04:48:26.736Z,3.20
2022-09-22T04:50:56.274Z,7.35
2022-09-22T04:53:24.510Z,7.13
2022-09-22T04:55:52.628Z,3.03
2022-09-22T04:58:20.743Z,4.95
2022-09-22T05:00:49.028Z,9.30
2022-09-22T05:03:21.919Z,4.50
2022-09-22T05:05:50.578Z,4.30
2022-09-22T05:08:19.996Z,7.82
2022-09-22T05:10:48.213Z,9.43
2022-09-22T05:13:16.718Z,7.72
2022-09-22T05:15:44.818Z,4.55
2022-09-22T05:18:12.997Z,10.93
2022-09-22T05:20:41.539Z,4.15
2022-09-22T05:23:09.760Z,7.72
2022-09-22T05:25:39.391Z,7.25
2022-09-22T05:28:07.454Z,5.75
2022-09-22T05:30:35.535Z,5.30
2022-09-22T05:33:03.716Z,8.73
2022-09-22T05:35:36.582Z,6.40
2022-09-22T05:38:05.090Z,4.30
2022-09-22T05:40:33.364Z,7.00
2022-09-22T05:43:03.012Z,5.70
2022-09-22T05:45:31.612Z,5.97
2022-09-22T05:47:59.818Z,7.50
2022-09-22T05:50:30.205Z,5.05
2022-09-22T05:53:05.973Z,8.00
2022-09-22T05:55:34.309Z,7.68
2022-09-22T05:58:04.725Z,7.20
2022-09-22T06:00:33.380Z,8.20
2022-09-22T06:03:01.716Z,10.32
2022-09-22T06:05:29.858Z,10.68
2022-09-22T06:08:01.533Z,15.13
2022-09-22T06:10:30.334Z,12.73
2022-09-22T06:12:59.947Z,7.40
2022-09-22T06:15:29.590Z,7.95
2022-09-22T06:17:58.135Z,7.95
2022-09-22T06:20:26.386Z,6.07
2022-09-22T06:22:55.045Z,8.88
2022-09-22T06:25:23.761Z,9.52
2022-09-22T06:28:01.912Z,8.38
2022-09-22T06:30:32.016Z,7.45
2022-09-22T06:33:00.212Z,7.25
2022-09-22T06:35:31.349Z,17.52
2022-09-22T06:38:00.278Z,11.00
2022-09-22T06:40:30.451Z,5.90
2022-09-22T06:42:59.513Z,12.02
2022-09-22T06:45:28.026Z,11.50
2022-09-22T06:48:00.571Z,8.43
2022-09-22T06:50:31.171Z,6.85
2022-09-22T06:53:00.879Z,7.68
2022-09-22T06:55:30.206Z,10.20
2022-09-22T06:57:59.986Z,7.93
2022-09-22T07:00:32.902Z,12.52
2022-09-22T07:03:09.163Z,11.43
2022-09-22T07:05:38.198Z,20.63
2022-09-22T07:08:08.110Z,12.57
2022-09-22T07:10:38.167Z,9.82
2022-09-22T07:13:06.574Z,15.98
2022-09-22T07:15:35.660Z,18.00
2022-09-22T07:18:04.533Z,13.98
2022-09-22T07:20:35.908Z,21.13
2022-09-22T07:23:04.080Z,18.02
2022-09-22T07:25:36.085Z,18.55
2022-09-22T07:28:06.161Z,22.70
2022-09-22T07:30:38.224Z,21.75
2022-09-22T07:33:06.283Z,24.80
2022-09-22T07:35:37.985Z,18.05
2022-09-22T07:38:06.132Z,19.27
2022-09-22T07:40:34.612Z,22.73
2022-09-22T07:43:02.628Z,22.90
2022-09-22T07:45:30.671Z,23.23
2022-09-22T07:48:16.368Z,19.33
2022-09-22T07:50:54.384Z,21.85
2022-09-22T07:53:22.533Z,22.30
2022-09-22T07:55:50.565Z,19.70
2022-09-22T07:58:18.709Z,16.95
2022-09-22T08:00:46.923Z,19.98
2022-09-22T08:03:16.378Z,20.33
2022-09-22T08:05:47.057Z,25.02
2022-09-22T08:08:15.283Z,18.58
2022-09-22T08:10:43.430Z,20.02
2022-09-22T08:13:11.448Z,24.33
2022-09-22T08:15:40.300Z,15.38
2022-09-22T08:18:08.415Z,17.33
2022-09-22T08:20:36.687Z,12.27
2022-09-22T08:23:06.198Z,18.90
2022-09-22T08:25:34.819Z,10.75
2022-09-22T08:28:03.214Z,16.15
2022-09-22T08:30:33.034Z,19.83
2022-09-22T08:33:01.777Z,14.07
2022-09-22T08:35:29.887Z,16.42
2022-09-22T08:37:58.060Z,12.60
2022-09-22T08:40:28.672Z,16.23
2022-09-22T08:42:57.481Z,16.75
2022-09-22T08:45:33.316Z,18.55
2022-09-22T08:48:24.450Z,18.38
2022-09-22T08:51:13.825Z,12.48
2022-09-22T08:53:47.746Z,10.80
2022-09-22T08:56:30.693Z,9.50
2022-09-22T08:59:04.945Z,11.23
2022-09-22T09:01:48.881Z,15.00
2022-09-22T09:04:54.515Z,13.73
2022-09-22T09:07:31.172Z,17.08
2022-09-22T09:10:07.121Z,8.82
2022-09-22T09:12:51.725Z,15.27
2022-09-22T09:15:45.679Z,12.93
2022-09-22T09:18:17.887Z,13.95
2022-09-22T09:20:48.221Z,6.80
2022-09-22T09:23:19.855Z,9.50
2022-09-22T09:25:50.822Z,7.28
2022-09-22T09:28:27.043Z,8.20
2022-09-22T09:31:02.468Z,24.80
2022-09-22T09:33:38.208Z,7.10
2022-09-22T09:36:13.459Z,8.13
2022-09-22T09:38:48.801Z,8.30
2022-09-22T09:41:20.685Z,9.07
2022-09-22T09:43:53.281Z,5.15
2022-09-22T09:46:34.566Z,11.40
2022-09-22T09:49:12.488Z,10.10
2022-09-22T09:51:43.879Z,10.35
2022-09-22T09:54:17.323Z,8.00
2022-09-22T09:57:07.600Z,9.75
2022-09-22T09:59:55.614Z,8.43
2022-09-22T10:02:28.589Z,9.13
2022-09-22T10:04:58.807Z,11.60
2022-09-22T10:07:29.272Z,8.95
2022-09-22T10:10:17.870Z,11.82
2022-09-22T10:12:47.360Z,6.78
2022-09-22T10:15:24.729Z,11.13
2022-09-22T10:17:53.248Z,7.90
2022-09-22T10:20:24.421Z,6.45
2022-09-22T10:22:52.706Z,7.65
2022-09-22T10:25:23.981Z,11.93
2022-09-22T10:28:05.785Z,7.22
2022-09-22T10:30:37.548Z,8.80
2022-09-22T10:33:23.636Z,6.00
2022-09-22T10:35:56.938Z,8.43
2022-09-22T10:38:29.367Z,8.00
2022-09-22T10:41:00.299Z,4.97
2022-09-22T10:43:38.370Z,6.15
2022-09-22T10:46:20.902Z,8.20
2022-09-22T10:48:53.275Z,5.85
2022-09-22T10:51:35.132Z,6.40
2022-09-22T10:54:35.920Z,8.82
2022-09-22T10:57:10.473Z,10.32
2022-09-22T11:00:04.098Z,4.22
2022-09-22T11:02:51.537Z,6.97
2022-09-22T11:06:01.708Z,7.82
2022-09-22T11:08:52.064Z,4.85
2022-09-22T11:11:45.788Z,8.05
2022-09-22T11:14:24.529Z,5.05
2022-09-22T11:17:07.283Z,9.45
2022-09-22T11:19:58.761Z,12.80
2022-09-22T11:22:43.084Z,8.55
2022-09-22T11:25:27.851Z,8.93
2022-09-22T11:28:09.312Z,8.43
2022-09-22T11:30:45.416Z,7.53
2022-09-22T11:33:58.235Z,5.43
2022-09-22T11:36:35.660Z,7.63
2022-09-22T11:39:20.594Z,9.45
2022-09-22T11:42:00.785Z,5.40
2022-09-22T11:44:36.334Z,5.90
2022-09-22T11:47:31.285Z,7.25
2022-09-22T11:52:58.366Z,26.48
2022-09-22T11:55:36.532Z,6.35
2022-09-22T11:58:10.722Z,8.45
2022-09-22T12:03:17.672Z,34.95
2022-09-22T12:05:52.739Z,7.55
2022-09-22T12:08:23.674Z,7.63
2022-09-22T12:10:52.894Z,8.35
2022-09-22T12:13:23.873Z,9.32
2022-09-22T12:16:02.584Z,8.05
2022-09-22T12:18:39.301Z,7.03
2022-09-22T12:21:24.065Z,12.68
2022-09-22T12:23:52.863Z,11.52
2022-09-22T12:26:28.556Z,7.15
2022-09-22T12:28:58.965Z,7.57
2022-09-22T12:31:36.027Z,7.35
2022-09-22T12:34:07.148Z,10.63
2022-09-22T12:36:39.343Z,6.95
2022-09-22T12:39:10.183Z,6.93
2022-09-22T12:41:48.646Z,4.60
2022-09-22T12:44:25.294Z,6.95
2022-09-22T12:46:58.527Z,9.43
2022-09-22T12:49:26.853Z,8.63
2022-09-22T12:51:56.516Z,5.20
2022-09-22T12:54:40.685Z,7.57
2022-09-22T12:57:28.976Z,7.32
2022-09-22T13:00:12.763Z,7.70
2022-09-22T13:02:46.061Z,6.45
2022-09-22T13:05:46.734Z,7.33
2022-09-22T13:08:47.830Z,6.50
2022-09-22T13:11:17.422Z,9.75
2022-09-22T13:13:45.539Z,8.93
2022-09-22T13:16:36.515Z,8.90
2022-09-22T13:19:10.185Z,6.07
2022-09-22T13:21:41.744Z,4.90
2022-09-22T13:24:26.620Z,5.35
2022-09-22T13:27:05.895Z,4.95
2022-09-22T13:29:34.472Z,4.65
2022-09-22T13:32:18.490Z,5.75
2022-09-22T13:34:47.107Z,5.70
2022-09-22T13:37:20.419Z,3.78
2022-09-22T13:39:51.705Z,4.53
2022-09-22T13:42:23.409Z,8.00
2022-09-22T13:45:01.537Z,5.43
2022-09-22T13:47:30.122Z,5.30
2022-09-22T13:50:04.169Z,6.28
2022-09-22T13:52:35.493Z,3.92
2022-09-22T13:55:09.641Z,7.22
2022-09-22T13:57:39.822Z,9.90
2022-09-22T14:00:10.361Z,7.30
2022-09-22T14:02:46.344Z,5.75
2022-09-22T14:05:19.831Z,6.38
2022-09-22T14:08:07.720Z,6.32
2022-09-22T14:10:50.031Z,10.48
2022-09-22T14:13:38.759Z,6.03
2022-09-22T14:16:23.776Z,6.93
2022-09-22T14:18:58.589Z,3.72
2022-09-22T14:21:26.802Z,5.57
2022-09-22T14:23:56.173Z,6.15
2022-09-22T14:26:33.700Z,4.97
2022-09-22T14:29:15.218Z,6.50
2022-09-22T14:31:46.769Z,6.60
2022-09-22T14:34:19.766Z,6.38
2022-09-22T14:36:52.285Z,6.55
2022-09-22T14:39:31.269Z,4.00
2022-09-22T14:42:09.063Z,4.07
2022-09-22T14:44:46.147Z,6.38
2022-09-22T14:47:25.731Z,7.22
2022-09-22T14:50:38.396Z,5.18
2022-09-22T14:53:12.290Z,3.78
2022-09-22T14:55:44.413Z,13.93
2022-09-22T14:58:18.245Z,5.30
2022-09-22T15:01:14.144Z,6.47
2022-09-22T15:03:45.370Z,5.32
2022-09-22T15:06:15.605Z,4.85
2022-09-22T15:08:48.994Z,5.57
2022-09-22T15:11:19.103Z,6.60
2022-09-22T15:13:50.997Z,4.00
2022-09-22T15:16:39.931Z,7.00
2022-09-22T15:19:12.050Z,5.13
2022-09-22T15:21:47.068Z,5.50
2022-09-22T15:24:21.238Z,4.20
2022-09-22T15:29:17.479Z,5.07
2022-09-22T15:31:47.152Z,7.90
2022-09-22T15:34:16.429Z,6.38
2022-09-22T15:36:47.959Z,5.82
2022-09-22T15:39:21.587Z,7.88
2022-09-22T15:41:49.814Z,3.75
2022-09-22T15:44:18.079Z,5.63
2022-09-22T15:46:51.421Z,5.45
2022-09-22T15:49:24.603Z,3.97
2022-09-22T15:51:53.237Z,3.65
2022-09-22T15:54:23.937Z,7.45
2022-09-22T15:56:55.667Z,4.85
2022-09-22T15:59:27.377Z,6.70
2022-09-22T16:01:57.526Z,4.72
2022-09-22T16:04:33.685Z,3.50
2022-09-22T16:07:05.500Z,4.40
2022-09-22T16:09:34.455Z,5.45
2022-09-22T16:12:21.524Z,6.45
2022-09-22T16:14:52.271Z,4.25
2022-09-22T16:17:24.114Z,2.97
2022-09-22T16:19:52.306Z,4.22
2022-09-22T16:22:20.559Z,5.43
2022-09-22T16:24:48.745Z,9.63
2022-09-22T16:27:16.846Z,8.02
2022-09-22T16:29:44.853Z,4.10
2022-09-22T16:32:12.939Z,7.97
2022-09-22T16:34:42.439Z,5.80
2022-09-22T16:37:10.637Z,6.25
2022-09-22T16:39:39.043Z,4.43
2022-09-22T16:42:07.418Z,4.68
2022-09-22T16:44:35.624Z,4.53
2022-09-22T16:47:04.236Z,5.90
2022-09-22T16:49:34.124Z,7.80
2022-09-22T16:52:03.641Z,8.60
2022-09-22T16:54:34.501Z,7.30
2022-09-22T16:57:02.570Z,4.63
2022-09-22T16:59:31.031Z,6.10
2022-09-22T17:01:59.571Z,8.50
2022-09-22T17:04:27.786Z,5.80
2022-09-22T17:06:55.986Z,4.10
2022-09-22T17:09:25.744Z,4.90
2022-09-22T17:11:53.913Z,7.65
2022-09-22T17:14:23.153Z,10.32
2022-09-22T17:16:52.965Z,5.97
2022-09-22T17:19:22.930Z,5.32
2022-09-22T17:21:55.328Z,7.20
2022-09-22T17:24:26.417Z,8.32
2022-09-22T17:26:56.089Z,5.57
2022-09-22T17:29:26.195Z,7.80
2022-09-22T17:31:57.340Z,9.85
2022-09-22T17:34:26.042Z,5.15
2022-09-22T17:36:55.623Z,7.57
2022-09-22T17:39:26.195Z,10.88
2022-09-22T17:41:55.116Z,5.28
2022-09-22T17:44:26.320Z,5.60
2022-09-22T17:47:12.080Z,9.35
2022-09-22T17:49:58.337Z,7.38
2022-09-22T17:52:44.111Z,14.48
2022-09-22T17:55:20.977Z,7.63
2022-09-22T17:57:50.431Z,6.45
2022-09-22T18:00:20.920Z,9.88
2022-09-22T18:02:50.538Z,6.72
2022-09-22T18:05:32.278Z,6.35
2022-09-22T18:08:00.766Z,13.32
2022-09-22T18:10:34.003Z,7.68
2022-09-22T18:13:03.357Z,7.17
2022-09-22T18:15:31.522Z,6.40
2022-09-22T18:17:59.643Z,10.02
2022-09-22T18:20:28.434Z,8.35
2022-09-22T18:23:00.400Z,8.23
2022-09-22T18:25:30.193Z,5.80
2022-09-22T18:27:58.295Z,12.70
2022-09-22T18:30:26.538Z,16.15
2022-09-22T18:32:55.001Z,6.75
2022-09-22T18:35:24.134Z,5.82
2022-09-22T18:37:52.512Z,5.35
2022-09-22T18:40:20.613Z,17.42
2022-09-22T18:42:50.210Z,7.38
2022-09-22T18:45:19.343Z,6.68
2022-09-22T18:47:47.609Z,8.45
2022-09-22T18:50:15.777Z,10.48
2022-09-22T18:52:46.943Z,11.15
2022-09-22T18:55:18.876Z,8.40
2022-09-22T18:57:48.496Z,9.57
2022-09-22T19:00:22.198Z,13.52
2022-09-22T19:02:50.635Z,15.80
2022-09-22T19:05:19.330Z,9.65
2022-09-22T19:07:48.448Z,14.93
2022-09-22T19:10:21.957Z,10.02
2022-09-22T19:12:50.916Z,13.57
2022-09-22T19:15:21.031Z,10.10
2022-09-22T19:17:50.276Z,14.57
2022-09-22T19:20:22.541Z,11.90
2022-09-22T19:22:52.563Z,25.40
2022-09-22T19:25:21.827Z,12.45
2022-09-22T19:27:50.402Z,12.30
2022-09-22T19:30:23.451Z,17.85
2022-09-22T19:32:52.888Z,14.50
2022-09-22T19:35:21.382Z,12.40
2022-09-22T19:37:52.013Z,16.20
2022-09-22T19:40:24.446Z,10.75
2022-09-22T19:42:53.280Z,12.90
2022-09-22T19:45:23.838Z,19.83
2022-09-22T19:47:52.472Z,14.95
2022-09-22T19:50:20.635Z,17.55
2022-09-22T19:52:48.985Z,19.27
2022-09-22T19:55:20.710Z,18.00
2022-09-22T19:57:50.031Z,22.13
2022-09-22T20:00:25.661Z,19.10
2022-09-22T20:02:58.643Z,20.55
2022-09-22T20:05:28.848Z,22.38
2022-09-22T20:07:57.192Z,16.10
2022-09-22T20:10:25.374Z,20.63
2022-09-22T20:12:53.717Z,16.88
2022-09-22T20:15:22.015Z,17.67
2022-09-22T20:17:50.189Z,14.88
2022-09-22T20:20:22.031Z,16.88
2022-09-22T20:22:55.235Z,12.30
2022-09-22T20:25:25.997Z,11.40
2022-09-22T20:27:54.791Z,11.00
2022-09-22T20:30:26.486Z,12.13
2022-09-22T20:32:54.675Z,15.05
2022-09-22T20:35:24.309Z,16.55
2022-09-22T20:37:53.125Z,28.77
2022-09-22T20:40:23.289Z,27.45
2022-09-22T20:42:54.233Z,30.73
2022-09-22T20:45:25.465Z,26.13
2022-09-22T20:47:54.244Z,24.88
2022-09-22T20:50:23.692Z,18.90
2022-09-22T20:52:51.793Z,15.80
2022-09-22T20:55:19.970Z,12.98
2022-09-22T20:57:48.179Z,15.32
2022-09-22T21:00:16.646Z,12.93
2022-09-22T21:02:45.671Z,16.10
2022-09-22T21:05:13.908Z,13.95
2022-09-22T21:07:43.630Z,15.00
2022-09-22T21:10:30.505Z,21.85
2022-09-22T21:13:00.496Z,13.55
2022-09-22T21:15:29.958Z,14.73
2022-09-22T21:17:58.580Z,15.93
2022-09-22T21:20:27.152Z,12.18
2022-09-22T21:22:56.845Z,13.75
2022-09-22T21:25:25.174Z,15.13
2022-09-22T21:27:53.410Z,16.80
2022-09-22T21:30:21.475Z,18.00
2022-09-22T21:32:49.671Z,12.82
2022-09-22T21:35:18.538Z,12.32
2022-09-22T21:37:46.681Z,15.50
2022-09-22T21:40:17.724Z,17.50
2022-09-22T21:42:45.919Z,16.63
2022-09-22T21:45:14.190Z,15.05
2022-09-22T21:47:42.267Z,13.18
2022-09-22T21:50:11.342Z,13.30
2022-09-22T21:52:39.538Z,12.35
2022-09-22T21:55:08.834Z,15.23
2022-09-22T21:57:38.868Z,10.63
2022-09-22T22:00:09.048Z,16.50
2022-09-22T22:02:57.929Z,13.27
2022-09-22T22:05:27.341Z,10.93
2022-09-22T22:07:55.424Z,14.40
2022-09-22T22:10:24.348Z,11.93
2022-09-22T22:12:55.573Z,11.43
2022-09-22T22:15:24.131Z,12.55
2022-09-22T22:17:52.298Z,14.25
2022-09-22T22:20:21.091Z,11.38
2022-09-22T22:22:49.077Z,13.13
2022-09-22T22:25:19.596Z,9.10
2022-09-22T22:27:47.727Z,16.58
2022-09-22T22:30:19.108Z,8.02
2022-09-22T22:32:47.528Z,8.55
2022-09-22T22:35:15.767Z,9.25
2022-09-22T22:37:46.041Z,9.80
2022-09-22T22:40:14.512Z,15.60
2022-09-22T22:42:42.928Z,10.40
2022-09-22T22:45:12.177Z,9.88
2022-09-22T22:47:41.689Z,14.60
2022-09-22T22:50:11.031Z,10.38
2022-09-22T22:52:42.300Z,11.45
2022-09-22T22:55:10.661Z,10.75
2022-09-22T22:57:38.788Z,10.65
2022-09-22T23:00:08.303Z,10.07
2022-09-22T23:02:36.405Z,6.53
2022-09-22T23:05:06.822Z,9.82
2022-09-22T23:07:34.969Z,11.88
2022-09-22T23:10:07.195Z,8.93
2022-09-22T23:12:36.101Z,6.22
2022-09-22T23:15:05.318Z,9.63
2022-09-22T23:17:33.469Z,7.55
2022-09-22T23:20:01.712Z,7.07
2022-09-22T23:22:31.154Z,9.93
2022-09-22T23:24:59.830Z,9.82
2022-09-22T23:27:28.565Z,8.50
2022-09-22T23:29:57.394Z,9.73
2022-09-22T23:32:25.647Z,8.00
2022-09-22T23:34:53.856Z,10.77
2022-09-22T23:37:25.148Z,7.50
2022-09-22T23:39:55.030Z,11.52
2022-09-22T23:42:24.445Z,9.00
2022-09-22T23:44:52.613Z,7.25
2022-09-22T23:47:20.891Z,9.38
2022-09-22T23:49:48.946Z,6.65
2022-09-22T23:52:16.974Z,9.05
2022-09-22T23:54:45.228Z,10.48
2022-09-22T23:57:14.911Z,11.45
2022-09-22T23:59:42.990Z,8.70
